Terminal Aerodrome Forecast
Issued by NWS

Home | Current Version | Previous Version | Text Only | Print | Product List | Glossary On
Versions: 1 2 3 4 5 6 7 8 9 10 11 12 13 14 15 16 17 18 19 20 21 22 23 24 25 26 27 28
000
FTAK31 PANC 281733
TAFADU
TAF
PADU 281733Z 2818/2918 33008KT P6SM VCSH SCT008 OVC016
      TEMPO 2818/2822 BKN008
     FM290400 34012KT P6SM -SHRA SCT008 BKN012
     FM291000 33014G20KT 5SM -RA BR BKN008=

USA.gov is the U.S. government's official web portal to all federal, state and local government web resources and services.